Time;durP1;ratioP1;P1;durP2;ratioP2;P2;SDS_P1;SDS_P2;PMS_P1;PMS_P2;Temp;Humidity;BMP_temperature;BMP_pressure;BME280_temperature;BME280_humidity;BME280_pressure;Samples;Min_cycle;Max_cycle;Signal;HPM_P1;HPM_P2
2022/07/12 00:01:51;;;;;;;3.80;3.50;;;18.80;99.90;;;;;;6156918;23;20178;-86
2022/07/12 00:04:18;;;;;;;4.00;3.60;;;18.60;1.00;;;;;;6182857;23;20174;-85
2022/07/12 00:06:46;;;;;;;3.93;3.53;;;18.50;99.90;;;;;;6182474;23;20181;-85
2022/07/12 00:09:13;;;;;;;4.37;4.07;;;18.50;1.00;;;;;;6209450;23;20166;-84
2022/07/12 00:11:40;;;;;;;3.87;3.50;;;18.40;1.00;;;;;;6159171;23;20500;-85
2022/07/12 00:14:08;;;;;;;4.00;3.70;;;18.40;1.00;;;;;;6185302;23;20162;-84
2022/07/12 00:16:36;;;;;;;4.20;3.80;;;18.40;1.00;;;;;;6161002;23;20161;-85
2022/07/12 00:19:03;;;;;;;4.90;3.37;;;18.50;1.00;;;;;;6185932;23;20162;-86
2022/07/12 00:21:30;;;;;;;3.63;3.33;;;18.50;1.00;;;;;;6186264;23;20164;-85
2022/07/12 00:27:39;;;;;;;3.53;3.23;;;18.40;1.00;;;;;;6210309;23;20152;-85
2022/07/12 00:30:07;;;;;;;5.00;3.87;;;18.40;99.90;;;;;;6161944;23;20924;-86
2022/07/12 00:32:34;;;;;;;4.13;3.50;;;18.30;1.00;;;;;;6166496;23;20859;-85
2022/07/12 00:35:02;;;;;;;3.93;3.63;;;18.30;1.00;;;;;;6194636;23;20174;-85
2022/07/12 00:37:29;;;;;;;3.70;3.40;;;18.30;1.00;;;;;;6181132;23;20184;-85
2022/07/12 00:39:56;;;;;;;4.47;4.03;;;18.30;1.00;;;;;;6180220;23;20196;-86
2022/07/12 00:42:23;;;;;;;4.43;4.03;;;18.30;1.00;;;;;;6149266;23;20183;-85
2022/07/12 00:44:50;;;;;;;4.00;3.70;;;18.30;99.90;;;;;;6174183;23;20240;-86
2022/07/12 00:47:37;;;;;;;3.93;3.47;;;18.30;1.00;;;;;;6201272;23;20272;-86
2022/07/12 00:50:05;;;;;;;3.67;3.37;;;18.30;1.00;;;;;;6138094;23;20184;-86
2022/07/12 00:52:32;;;;;;;4.47;3.63;;;18.30;1.00;;;;;;6166513;23;20196;-85
2022/07/12 00:54:59;;;;;;;4.27;3.27;;;18.30;99.90;;;;;;6137473;23;20168;-86
2022/07/12 00:57:27;;;;;;;5.60;3.60;;;18.20;1.00;;;;;;6132715;23;20192;-86
2022/07/12 00:59:54;;;;;;;4.30;3.90;;;18.20;1.00;;;;;;6136618;23;20180;-86
2022/07/12 01:02:21;;;;;;;4.33;3.70;;;18.20;1.00;;;;;;6136163;23;20169;-84
2022/07/12 01:04:50;;;;;;;4.60;4.17;;;18.20;1.00;;;;;;6129372;23;20165;-85
2022/07/12 01:07:17;;;;;;;5.93;4.10;;;18.10;1.00;;;;;;6153538;23;20227;-86
2022/07/12 01:09:45;;;;;;;4.23;3.90;;;18.10;1.00;;;;;;6129117;23;20249;-85
2022/07/12 01:12:12;;;;;;;4.13;3.73;;;18.10;66.70;;;;;;6152534;23;20169;-86
2022/07/12 01:14:40;;;;;;;4.03;3.70;;;18.00;99.90;;;;;;6151848;23;20268;-86
2022/07/12 01:17:08;;;;;;;4.27;3.97;;;18.00;74.20;;;;;;6178927;23;20212;-85
2022/07/12 01:19:37;;;;;;;4.63;4.03;;;18.00;1.00;;;;;;6151534;23;20656;-85
2022/07/12 01:22:08;;;;;;;4.60;4.20;;;18.00;1.00;;;;;;6127940;23;20161;-84
2022/07/12 01:24:36;;;;;;;4.23;3.80;;;17.90;40.70;;;;;;6153114;23;20235;-86
2022/07/12 01:27:04;;;;;;;4.47;3.83;;;17.90;99.90;;;;;;6126214;23;20168;-82
2022/07/12 01:29:31;;;;;;;4.60;4.20;;;17.90;68.30;;;;;;6150673;23;20177;-82
2022/07/12 01:32:24;;;;;;;4.33;3.93;;;17.80;1.00;;;;;;6176595;23;20180;-84
2022/07/12 01:34:55;;;;;;;4.70;4.30;;;17.90;67.40;;;;;;6175230;23;20169;-85
2022/07/12 01:37:23;;;;;;;6.77;4.37;;;17.80;42.50;;;;;;6150223;23;20231;-84
2022/07/12 01:39:53;;;;;;;4.83;4.33;;;17.80;1.00;;;;;;6167631;23;20216;-82
2022/07/12 01:42:24;;;;;;;5.27;4.37;;;17.80;1.00;;;;;;6142050;23;20192;-84
2022/07/12 01:44:53;;;;;;;4.63;4.30;;;17.80;1.00;;;;;;6117405;23;20180;-84
2022/07/12 01:47:22;;;;;;;4.50;4.03;;;17.70;28.10;;;;;;6120207;23;1176367;-82
2022/07/12 01:49:49;;;;;;;4.93;4.53;;;17.70;35.40;;;;;;6155690;23;20624;-84
2022/07/12 01:52:17;;;;;;;4.40;4.00;;;17.70;13.50;;;;;;6184244;23;20172;-85
2022/07/12 01:54:44;;;;;;;4.67;4.10;;;17.70;46.80;;;;;;6183073;23;20219;-85
2022/07/12 01:57:11;;;;;;;4.70;4.30;;;17.70;42.90;;;;;;6159332;23;20236;-82
2022/07/12 01:59:39;;;;;;;6.97;4.83;;;17.70;39.20;;;;;;6184699;23;20166;-85
2022/07/12 02:02:07;;;;;;;4.80;4.30;;;17.70;32.30;;;;;;6210945;23;20176;-84
2022/07/12 02:04:35;;;;;;;5.00;4.53;;;17.70;63.90;;;;;;6210684;23;20546;-83
2022/07/12 02:07:03;;;;;;;6.23;4.30;;;17.60;61.10;;;;;;6159835;23;20229;-85
2022/07/12 02:09:32;;;;;;;4.43;4.03;;;17.70;71.90;;;;;;6159409;23;20161;-85
2022/07/12 02:11:59;;;;;;;5.00;4.40;;;17.70;18.70;;;;;;6184389;23;20217;-85
2022/07/12 02:14:26;;;;;;;4.73;4.33;;;17.60;1.00;;;;;;6184418;23;20160;-85
2022/07/12 02:16:54;;;;;;;5.23;4.73;;;17.60;1.00;;;;;;6184702;23;20465;-84
2022/07/12 02:19:21;;;;;;;5.67;4.80;;;17.60;50.60;;;;;;6158936;23;20430;-85
2022/07/12 02:21:49;;;;;;;7.53;4.80;;;17.60;37.40;;;;;;6158684;23;20589;-84
2022/07/12 02:24:16;;;;;;;6.63;5.30;;;17.60;27.30;;;;;;6134562;23;20152;-85
2022/07/12 02:26:43;;;;;;;5.67;5.20;;;17.50;80.30;;;;;;6208782;23;20230;-84
2022/07/12 02:29:11;;;;;;;5.40;4.97;;;17.50;99.50;;;;;;6159016;23;20267;-85
2022/07/12 02:31:38;;;;;;;5.40;4.90;;;17.40;99.90;;;;;;6159491;23;20162;-81
2022/07/12 02:34:05;;;;;;;6.20;5.60;;;17.50;99.90;;;;;;6167164;23;20176;-83
2022/07/12 02:36:33;;;;;;;6.07;5.47;;;17.50;99.90;;;;;;6186566;23;20164;-84
2022/07/12 02:39:04;;;;;;;6.00;5.50;;;17.50;99.90;;;;;;6182933;23;20542;-81
2022/07/12 02:41:31;;;;;;;5.77;5.30;;;17.50;96.70;;;;;;6180370;23;20214;-83
2022/07/12 02:43:58;;;;;;;6.13;5.20;;;17.40;99.90;;;;;;6182713;23;20176;-83
2022/07/12 02:46:26;;;;;;;6.37;5.80;;;17.40;99.90;;;;;;6161125;23;20518;-84
2022/07/12 02:48:53;;;;;;;5.43;4.93;;;17.40;99.90;;;;;;6158706;23;20172;-84
2022/07/12 02:51:22;;;;;;;5.93;5.30;;;17.40;99.90;;;;;;6134352;23;20169;-85
2022/07/12 02:53:48;;;;;;;5.83;5.33;;;17.40;99.90;;;;;;6158445;23;20624;-84
2022/07/12 02:56:15;;;;;;;6.10;5.57;;;17.30;99.90;;;;;;6210197;23;20165;-83
2022/07/12 02:58:43;;;;;;;5.43;4.90;;;17.30;99.90;;;;;;6184998;23;20779;-84
2022/07/12 03:01:11;;;;;;;6.03;5.53;;;17.30;99.90;;;;;;6134788;23;20684;-84
2022/07/12 03:03:38;;;;;;;6.13;5.63;;;17.20;99.90;;;;;;6136420;23;20161;-84
2022/07/12 03:06:05;;;;;;;6.03;5.53;;;17.20;99.90;;;;;;6136520;23;20160;-84
2022/07/12 03:08:31;;;;;;;7.13;5.07;;;17.20;99.90;;;;;;6158176;23;20166;-84
2022/07/12 03:10:58;;;;;;;6.67;6.07;;;17.30;99.90;;;;;;6206961;23;20171;-84
2022/07/12 03:13:25;;;;;;;6.17;5.50;;;17.30;99.90;;;;;;6158560;23;20166;-84
2022/07/12 03:15:52;;;;;;;6.13;5.53;;;17.30;99.90;;;;;;6134594;23;20203;-84
2022/07/12 03:18:19;;;;;;;6.00;5.50;;;17.20;99.90;;;;;;6158249;23;20202;-85
2022/07/12 03:20:48;;;;;;;5.50;5.00;;;17.20;99.90;;;;;;6182903;23;20170;-84
2022/07/12 03:23:15;;;;;;;6.27;5.77;;;17.20;99.90;;;;;;6182610;23;20163;-84
2022/07/12 03:25:42;;;;;;;6.57;5.97;;;17.20;99.90;;;;;;6158258;23;20157;-83
2022/07/12 03:28:09;;;;;;;6.67;5.80;;;17.20;99.90;;;;;;6135597;23;20157;-85
2022/07/12 03:30:36;;;;;;;5.73;5.23;;;17.20;99.90;;;;;;6157953;23;20218;-84
2022/07/12 03:33:03;;;;;;;6.43;5.93;;;17.10;99.90;;;;;;6183413;23;20188;-85
2022/07/12 03:35:30;;;;;;;6.10;5.60;;;17.10;99.90;;;;;;6159847;23;20161;-84
2022/07/12 03:37:57;;;;;;;6.43;5.83;;;17.10;99.90;;;;;;6208562;23;20188;-83
2022/07/12 03:40:24;;;;;;;6.20;5.40;;;17.10;99.90;;;;;;6132225;23;20190;-84
2022/07/12 03:42:52;;;;;;;7.20;6.50;;;17.10;99.90;;;;;;6159137;23;20586;-84
2022/07/12 03:45:19;;;;;;;5.77;5.27;;;17.00;99.90;;;;;;6183567;23;20160;-85
2022/07/12 03:47:48;;;;;;;7.10;6.23;;;17.10;99.90;;;;;;6159158;23;20235;-84
2022/07/12 03:50:15;;;;;;;6.77;6.17;;;17.10;99.90;;;;;;6155830;23;20259;-84
2022/07/12 03:52:43;;;;;;;7.00;6.30;;;17.10;99.90;;;;;;6157260;23;20329;-84
2022/07/12 03:55:13;;;;;;;5.93;5.37;;;17.10;99.90;;;;;;6158522;23;20250;-84
2022/07/12 03:57:40;;;;;;;5.80;5.30;;;17.10;99.90;;;;;;6183407;23;20192;-84
2022/07/12 04:00:11;;;;;;;5.67;5.17;;;17.10;99.90;;;;;;6157913;23;20165;-84
2022/07/12 04:02:40;;;;;;;6.50;5.47;;;17.00;99.90;;;;;;6212270;23;20171;-83
2022/07/12 04:05:10;;;;;;;6.90;5.93;;;17.00;99.90;;;;;;6159184;23;20171;-84
2022/07/12 04:07:37;;;;;;;5.80;5.30;;;17.00;99.90;;;;;;6183972;23;20349;-83
2022/07/12 04:10:05;;;;;;;5.43;5.03;;;17.10;99.90;;;;;;6182783;23;20157;-84
2022/07/12 04:12:32;;;;;;;5.70;5.20;;;17.00;99.90;;;;;;6182907;23;20599;-84
2022/07/12 04:14:59;;;;;;;5.00;4.57;;;17.10;99.90;;;;;;6182791;23;20218;-81
2022/07/12 04:17:26;;;;;;;4.07;3.67;;;17.10;99.90;;;;;;6183652;23;20587;-84
2022/07/12 04:19:53;;;;;;;4.90;4.33;;;17.10;99.90;;;;;;6158549;23;20541;-84
2022/07/12 04:22:20;;;;;;;5.60;4.60;;;17.10;99.90;;;;;;6182748;23;20982;-85
2022/07/12 04:24:47;;;;;;;5.90;5.40;;;17.00;99.90;;;;;;6160099;23;20167;-84
2022/07/12 04:27:14;;;;;;;5.10;4.70;;;17.00;99.90;;;;;;6139844;23;20165;-82
2022/07/12 04:29:41;;;;;;;5.63;5.13;;;17.10;99.90;;;;;;6167976;23;20238;-84
2022/07/12 04:32:08;;;;;;;6.63;5.20;;;17.00;99.90;;;;;;6168908;23;20169;-82
2022/07/12 04:34:35;;;;;;;6.37;5.73;;;17.00;99.90;;;;;;6173434;23;20161;-84
2022/07/12 04:37:02;;;;;;;5.53;5.03;;;16.90;99.90;;;;;;6155559;23;20159;-82
2022/07/12 04:39:29;;;;;;;5.90;5.40;;;17.10;99.90;;;;;;6151699;23;20190;-82
2022/07/12 04:41:55;;;;;;;7.27;6.03;;;17.10;99.90;;;;;;6180709;23;20168;-83
2022/07/12 04:44:24;;;;;;;5.93;5.43;;;17.20;99.90;;;;;;6199392;23;20172;-84
2022/07/12 04:46:51;;;;;;;7.77;6.30;;;17.20;99.90;;;;;;6140671;23;20311;-82
2022/07/12 04:49:18;;;;;;;6.37;5.77;;;17.30;99.90;;;;;;6164181;23;20230;-83
2022/07/12 04:51:45;;;;;;;6.10;5.60;;;17.30;99.90;;;;;;6165264;23;20165;-85
2022/07/12 04:54:12;;;;;;;6.70;6.10;;;17.30;99.90;;;;;;6164716;23;20172;-83
2022/07/12 04:56:38;;;;;;;6.53;5.73;;;17.30;99.90;;;;;;6169720;23;20162;-84
2022/07/12 04:59:05;;;;;;;6.70;6.10;;;17.30;99.90;;;;;;6189466;23;20535;-84
2022/07/12 05:01:33;;;;;;;6.90;6.10;;;17.40;99.90;;;;;;6167847;23;20261;-82
2022/07/12 05:04:00;;;;;;;7.63;7.03;;;17.50;99.90;;;;;;6166400;23;20251;-84
2022/07/12 05:06:27;;;;;;;7.37;6.67;;;17.60;99.90;;;;;;6187396;23;20158;-84
2022/07/12 05:08:54;;;;;;;7.73;7.03;;;17.60;99.90;;;;;;6154736;23;20515;-84
2022/07/12 05:11:21;;;;;;;8.13;7.33;;;17.80;99.90;;;;;;6153564;23;20175;-83
2022/07/12 05:13:48;;;;;;;7.50;6.80;;;17.80;99.90;;;;;;6155463;23;20189;-84
2022/07/12 05:16:15;;;;;;;7.97;7.20;;;17.90;99.90;;;;;;6156165;23;20181;-84
2022/07/12 05:18:42;;;;;;;8.10;7.40;;;18.00;99.90;;;;;;6179179;23;20201;-84
2022/07/12 05:21:10;;;;;;;8.73;7.83;;;18.10;99.90;;;;;;6177583;23;20161;-84
2022/07/12 05:23:37;;;;;;;8.97;8.13;;;18.30;99.90;;;;;;6177175;23;20611;-84
2022/07/12 05:26:04;;;;;;;8.47;7.77;;;18.30;99.90;;;;;;6155854;23;20158;-85
2022/07/12 05:28:31;;;;;;;9.40;8.50;;;18.40;99.90;;;;;;6153036;23;20170;-85
2022/07/12 05:30:57;;;;;;;8.73;7.93;;;18.50;99.90;;;;;;6154491;23;20170;-84
2022/07/12 05:33:24;;;;;;;10.17;8.70;;;18.60;1.00;;;;;;6154333;23;20201;-84
2022/07/12 05:35:52;;;;;;;8.97;8.07;;;18.70;99.90;;;;;;6155685;23;20163;-84
2022/07/12 05:38:19;;;;;;;9.07;8.27;;;18.80;1.00;;;;;;6151632;23;20205;-85
2022/07/12 05:40:46;;;;;;;9.57;8.77;;;18.90;99.90;;;;;;6150927;23;20207;-82
2022/07/12 05:43:15;;;;;;;10.40;9.27;;;19.00;1.00;;;;;;6176452;23;20189;-84
2022/07/12 05:45:42;;;;;;;9.30;8.50;;;19.10;1.00;;;;;;6153786;23;20792;-83
2022/07/12 05:48:09;;;;;;;8.37;7.67;;;19.20;1.00;;;;;;6153217;23;20172;-84
2022/07/12 05:50:36;;;;;;;9.00;8.20;;;19.40;1.00;;;;;;6125662;23;20170;-83
2022/07/12 05:53:22;;;;;;;8.90;8.10;;;19.40;99.90;;;;;;6178194;23;20207;-84
2022/07/12 05:55:52;;;;;;;8.60;7.80;;;19.40;8.90;;;;;;6157417;23;20198;-84
2022/07/12 05:58:20;;;;;;;9.47;8.67;;;19.50;99.90;;;;;;6177151;23;20195;-84
2022/07/12 06:00:48;;;;;;;7.90;7.20;;;19.50;1.00;;;;;;6149817;23;20191;-84
2022/07/12 06:03:16;;;;;;;9.10;8.30;;;19.50;38.70;;;;;;6127571;23;20229;-83
2022/07/12 06:05:43;;;;;;;8.57;7.87;;;19.50;99.90;;;;;;6151209;23;20160;-84
2022/07/12 06:08:10;;;;;;;8.80;7.90;;;19.20;99.90;;;;;;6130082;23;20216;-83
2022/07/12 06:10:37;;;;;;;9.77;8.80;;;19.10;1.00;;;;;;6129848;23;20160;-84
2022/07/12 06:13:05;;;;;;;8.70;7.90;;;19.20;99.90;;;;;;6153922;23;20231;-84
2022/07/12 06:15:32;;;;;;;8.77;7.97;;;19.20;83.00;;;;;;6151329;23;20687;-84
2022/07/12 06:18:01;;;;;;;9.00;8.20;;;19.10;99.90;;;;;;6152543;23;20243;-89
2022/07/12 06:20:29;;;;;;;9.47;8.67;;;19.20;1.00;;;;;;6153539;23;20449;-83
2022/07/12 06:22:57;;;;;;;10.70;9.27;;;19.30;1.00;;;;;;6130868;23;20192;-84
2022/07/12 06:25:24;;;;;;;17.70;8.63;;;19.50;99.90;;;;;;6181306;23;20541;-81
2022/07/12 06:28:09;;;;;;;10.33;8.33;;;19.60;1.00;;;;;;6138339;23;20252;-85
2022/07/12 06:30:36;;;;;;;10.40;8.60;;;19.70;1.00;;;;;;6131420;23;20161;-83
2022/07/12 06:33:03;;;;;;;9.50;8.60;;;19.90;1.00;;;;;;6129679;23;20164;-84
2022/07/12 06:35:30;;;;;;;11.10;8.90;;;20.00;99.90;;;;;;6152254;23;20169;-79
2022/07/12 06:37:57;;;;;;;8.87;7.97;;;19.90;1.00;;;;;;6126337;23;20537;-82
2022/07/12 06:40:24;;;;;;;8.97;8.17;;;20.00;1.00;;;;;;6127237;23;20708;-80
2022/07/12 06:42:51;;;;;;;8.77;7.97;;;20.10;99.90;;;;;;6129216;23;20164;-79
2022/07/12 06:45:18;;;;;;;8.80;7.93;;;20.20;99.90;;;;;;6150722;23;20183;-80
2022/07/12 06:47:45;;;;;;;8.43;7.63;;;20.40;1.00;;;;;;6151578;23;20192;-80
2022/07/12 06:50:13;;;;;;;8.90;7.63;;;20.50;1.00;;;;;;6153427;23;20160;-82
2022/07/12 06:52:40;;;;;;;8.57;7.77;;;20.50;1.00;;;;;;6183108;23;20184;-80
2022/07/12 06:55:08;;;;;;;9.80;7.93;;;20.60;99.90;;;;;;6159426;23;20169;-79
2022/07/12 06:57:37;;;;;;;8.07;7.27;;;20.70;1.00;;;;;;6158615;23;20175;-80
2022/07/12 07:00:07;;;;;;;7.33;6.63;;;21.00;99.90;;;;;;6182553;23;20188;-80
2022/07/12 07:02:33;;;;;;;8.47;7.77;;;21.00;99.90;;;;;;6182071;23;20172;-80
2022/07/12 07:05:01;;;;;;;8.03;7.23;;;21.00;99.90;;;;;;6157564;23;20461;-80
2022/07/12 07:07:27;;;;;;;8.20;7.37;;;21.20;2.50;;;;;;6158316;23;20353;-79
2022/07/12 07:09:55;;;;;;;10.67;7.17;;;21.30;1.00;;;;;;6130955;23;20234;-80
2022/07/12 07:12:22;;;;;;;7.30;6.70;;;21.50;1.00;;;;;;6179564;23;20172;-80
2022/07/12 07:14:49;;;;;;;7.90;7.20;;;21.60;1.00;;;;;;6178730;23;20183;-80
2022/07/12 07:17:17;;;;;;;7.70;7.00;;;21.50;99.90;;;;;;6133470;23;20593;-80
2022/07/12 07:19:44;;;;;;;7.57;5.97;;;21.70;1.00;;;;;;6179713;23;20185;-80
2022/07/12 07:22:12;;;;;;;7.77;7.07;;;21.80;99.90;;;;;;6155326;23;20226;-80
2022/07/12 07:24:39;;;;;;;6.73;6.03;;;21.80;30.50;;;;;;6155657;23;20230;-80
2022/07/12 07:27:07;;;;;;;6.77;6.17;;;22.00;1.00;;;;;;6130425;23;20163;-80
2022/07/12 07:32:20;;;;;;;7.97;5.90;;;22.40;72.40;;;;;;6182875;23;20617;-80
2022/07/12 07:34:47;;;;;;;6.87;5.77;;;22.20;1.00;;;;;;6156630;23;20183;-80
2022/07/12 07:37:14;;;;;;;6.53;5.80;;;22.00;99.90;;;;;;6130944;23;20186;-80
2022/07/12 07:39:41;;;;;;;6.63;5.93;;;22.20;1.00;;;;;;6152224;23;20203;-80
2022/07/12 07:42:08;;;;;;;5.70;5.20;;;22.20;1.00;;;;;;6177884;23;20172;-79
2022/07/12 07:44:36;;;;;;;7.73;6.57;;;22.40;27.40;;;;;;6151559;23;20183;-80
2022/07/12 07:47:22;;;;;;;7.53;6.73;;;22.30;34.70;;;;;;6159745;23;20206;-80
2022/07/12 07:49:49;;;;;;;6.73;5.77;;;22.40;99.90;;;;;;6150759;23;20927;-80
2022/07/12 07:52:16;;;;;;;7.40;6.80;;;22.50;1.00;;;;;;6152133;23;20164;-80
2022/07/12 07:54:43;;;;;;;6.47;5.87;;;22.50;99.90;;;;;;6152407;23;20205;-80
2022/07/12 07:57:10;;;;;;;6.73;5.50;;;22.60;1.00;;;;;;6152688;23;20168;-80
2022/07/12 07:59:37;;;;;;;6.30;5.80;;;22.60;1.00;;;;;;6152943;23;20183;-80
2022/07/12 08:02:04;;;;;;;6.70;5.77;;;22.70;1.00;;;;;;6150340;23;20231;-81
2022/07/12 08:04:31;;;;;;;7.50;6.07;;;22.60;99.90;;;;;;6126867;23;20156;-80
2022/07/12 08:06:58;;;;;;;6.47;5.80;;;22.50;99.90;;;;;;6154300;23;20230;-80
2022/07/12 08:09:25;;;;;;;6.27;5.63;;;22.40;1.00;;;;;;6129483;23;20179;-79
2022/07/12 08:11:52;;;;;;;5.33;4.90;;;22.50;1.00;;;;;;6153134;23;20600;-80
2022/07/12 08:14:19;;;;;;;5.00;4.30;;;22.60;99.90;;;;;;6154671;23;20168;-79
2022/07/12 08:16:46;;;;;;;5.43;4.63;;;22.60;99.90;;;;;;6200219;23;20168;-79
2022/07/12 08:19:13;;;;;;;5.60;5.10;;;22.50;1.00;;;;;;6175874;23;21101;-79
2022/07/12 08:21:40;;;;;;;5.10;4.70;;;22.80;2.60;;;;;;6177548;23;20159;-80
2022/07/12 08:24:07;;;;;;;5.43;4.93;;;23.00;1.00;;;;;;6176816;23;20158;-81
2022/07/12 08:26:33;;;;;;;4.30;4.00;;;23.20;1.00;;;;;;6181271;23;20187;-80
2022/07/12 08:29:00;;;;;;;4.93;4.40;;;23.10;1.00;;;;;;6175930;23;20171;-79
2022/07/12 08:31:27;;;;;;;6.00;5.40;;;23.10;1.00;;;;;;6160106;23;20215;-79
2022/07/12 08:33:54;;;;;;;5.03;4.57;;;23.10;1.00;;;;;;6184971;23;20168;-78
2022/07/12 08:36:21;;;;;;;6.43;5.63;;;22.90;1.00;;;;;;6183979;23;20176;-79
2022/07/12 08:38:48;;;;;;;5.67;5.10;;;22.90;99.90;;;;;;6137726;23;20168;-78
2022/07/12 08:41:15;;;;;;;6.07;4.77;;;22.90;1.00;;;;;;6212537;23;20195;-78
2022/07/12 08:43:42;;;;;;;6.13;5.43;;;23.00;1.00;;;;;;6186588;23;20214;-79
2022/07/12 08:46:14;;;;;;;5.50;5.00;;;23.20;1.00;;;;;;6204826;23;20203;-79
2022/07/12 08:48:43;;;;;;;5.67;5.07;;;23.40;99.90;;;;;;6180164;23;20164;-78
2022/07/12 08:51:17;;;;;;;5.40;4.90;;;23.80;99.90;;;;;;6180386;23;20662;-78
2022/07/12 08:53:44;;;;;;;6.17;5.67;;;24.10;1.00;;;;;;6152620;23;20216;-79
2022/07/12 08:56:33;;;;;;;5.67;5.17;;;24.40;1.00;;;;;;6124691;23;20236;-78
2022/07/12 08:59:19;;;;;;;6.22;5.63;;;24.40;99.90;;;;;;6176428;23;20399;-75
2022/07/12 09:01:49;;;;;;;6.93;4.93;;;24.50;1.00;;;;;;6171734;23;20172;-76
2022/07/12 09:04:25;;;;;;;5.03;4.63;;;25.30;99.90;;;;;;6150115;23;20171;-76
2022/07/12 09:06:52;;;;;;;5.93;5.43;;;26.20;1.00;;;;;;6150329;23;20175;-76
2022/07/12 09:09:31;;;;;;;6.07;4.40;;;26.30;1.00;;;;;;6151426;23;20199;-77
2022/07/12 09:11:58;;;;;;;5.07;3.67;;;26.40;1.00;;;;;;6182037;23;20206;-76
2022/07/12 09:14:26;;;;;;;5.47;3.73;;;27.00;99.90;;;;;;6157314;23;20213;-75
2022/07/12 09:17:12;;;;;;;4.50;4.10;;;27.90;99.90;;;;;;6156844;23;20165;-77
2022/07/12 09:19:39;;;;;;;4.67;4.17;;;28.40;99.90;;;;;;6183053;23;20192;-77
2022/07/12 09:22:17;;;;;;;6.23;4.60;;;27.70;99.90;;;;;;6133577;23;20157;-80
2022/07/12 09:24:44;;;;;;;4.87;4.37;;;26.60;1.00;;;;;;6181509;23;20167;-77
2022/07/12 09:27:11;;;;;;;7.13;5.97;;;27.10;99.90;;;;;;6150654;23;20171;-76
2022/07/12 09:29:48;;;;;;;5.13;4.70;;;26.40;1.00;;;;;;6131950;23;20219;-76
2022/07/12 09:37:50;;;;;;;5.65;5.15;;;28.10;99.90;;;;;;6184825;23;20161;-77
2022/07/12 09:40:20;;;;;;;6.72;4.07;;;27.40;99.90;;;;;;6161119;23;20220;-76
2022/07/12 09:42:47;;;;;;;4.18;3.38;;;27.80;99.90;;;;;;6162427;23;20153;-76
2022/07/12 09:45:15;;;;;;;4.57;3.45;;;28.20;1.00;;;;;;6159915;23;20165;-76
2022/07/12 09:47:44;;;;;;;4.40;4.00;;;27.90;99.90;;;;;;6183944;23;20606;-76
2022/07/12 09:50:11;;;;;;;5.95;4.32;;;27.80;99.90;;;;;;6188224;23;20176;-76
2022/07/12 09:52:39;;;;;;;5.03;4.53;;;27.70;99.90;;;;;;6189656;23;20195;-77
2022/07/12 09:55:09;;;;;;;5.90;5.38;;;27.10;99.90;;;;;;6138585;23;20804;-77
2022/07/12 09:57:41;;;;;;;4.40;4.10;;;26.90;1.00;;;;;;6206687;23;20476;-76
2022/07/12 10:00:11;;;;;;;4.80;3.80;;;27.10;99.90;;;;;;6179951;23;20549;-76
2022/07/12 10:02:39;;;;;;;3.73;2.87;;;27.20;99.90;;;;;;6154763;23;20173;-77
2022/07/12 10:05:08;;;;;;;3.40;2.90;;;26.50;99.90;;;;;;6154389;23;20175;-76
2022/07/12 10:07:37;;;;;;;4.77;2.70;;;26.60;99.90;;;;;;6178317;23;20165;-76
2022/07/12 10:10:05;;;;;;;2.90;2.60;;;26.90;99.90;;;;;;6177898;23;20171;-76
2022/07/12 10:12:32;;;;;;;2.73;2.33;;;27.00;99.90;;;;;;6206870;23;20164;-78
2022/07/12 10:15:03;;;;;;;2.63;2.40;;;27.00;99.90;;;;;;6130780;23;20608;-77
2022/07/12 10:17:32;;;;;;;2.70;2.37;;;26.30;99.90;;;;;;6206715;23;20219;-76
2022/07/12 10:20:16;;;;;;;4.03;2.50;;;26.40;99.90;;;;;;6178746;23;20309;-77
2022/07/12 10:22:44;;;;;;;2.97;2.63;;;26.40;99.90;;;;;;6205076;23;20170;-78
2022/07/12 10:25:33;;;;;;;2.77;2.57;;;26.70;99.90;;;;;;6153596;23;20198;-77
2022/07/12 10:28:01;;;;;;;3.10;2.30;;;26.70;99.90;;;;;;6203683;23;20228;-78
2022/07/12 10:30:29;;;;;;;3.70;2.73;;;26.70;99.90;;;;;;6205373;23;20183;-78
2022/07/12 10:32:59;;;;;;;3.90;2.53;;;26.90;99.90;;;;;;6154137;23;20282;-79
2022/07/12 10:35:30;;;;;;;5.10;3.57;;;27.00;99.90;;;;;;6177274;23;20276;-76
2022/07/12 10:38:13;;;;;;;4.60;3.37;;;26.60;1.00;;;;;;6206122;23;20163;-78
2022/07/12 10:40:43;;;;;;;3.53;2.87;;;26.70;1.00;;;;;;6177085;23;20762;-79
2022/07/12 10:43:10;;;;;;;3.07;2.67;;;26.70;1.00;;;;;;6132176;23;20170;-78
2022/07/12 10:45:40;;;;;;;2.43;2.23;;;26.70;1.00;;;;;;6179065;23;20202;-78
2022/07/12 10:48:09;;;;;;;2.90;2.70;;;26.40;99.90;;;;;;6200377;23;20537;-78
2022/07/12 10:50:41;;;;;;;3.17;2.80;;;26.60;99.90;;;;;;6178794;23;20229;-78
2022/07/12 10:53:25;;;;;;;4.33;3.73;;;26.30;1.00;;;;;;6178783;23;20892;-77
2022/07/12 10:56:07;;;;;;;3.57;2.87;;;26.20;99.90;;;;;;6178150;23;20207;-77
2022/07/12 10:58:49;;;;;;;3.13;2.90;;;26.60;99.90;;;;;;6204542;23;20529;-78
2022/07/12 11:01:18;;;;;;;3.20;3.00;;;26.40;99.90;;;;;;6203619;23;20510;-78
2022/07/12 11:03:49;;;;;;;3.83;2.60;;;26.20;99.90;;;;;;6206415;23;20196;-78
2022/07/12 11:06:18;;;;;;;2.73;2.53;;;26.40;99.90;;;;;;6177955;23;20214;-78
2022/07/12 11:08:59;;;;;;;10.97;2.80;;;26.50;99.90;;;;;;6204501;23;20165;-78
2022/07/12 11:11:32;;;;;;;2.60;2.40;;;26.80;99.90;;;;;;6153944;23;20192;-78
2022/07/12 11:14:01;;;;;;;3.38;2.53;;;26.50;99.90;;;;;;6206928;23;20164;-78
2022/07/12 11:16:30;;;;;;;3.13;2.60;;;26.10;99.90;;;;;;6205751;23;20474;-78
2022/07/12 11:18:57;;;;;;;4.67;2.50;;;25.90;99.90;;;;;;6180890;23;20253;-78
2022/07/12 11:21:25;;;;;;;3.20;2.90;;;26.30;99.90;;;;;;6177871;23;20536;-78
2022/07/12 11:23:52;;;;;;;3.40;3.10;;;26.30;99.90;;;;;;6177996;23;20198;-78
2022/07/12 11:26:19;;;;;;;2.53;2.33;;;26.50;99.90;;;;;;6204335;23;20163;-78
2022/07/12 11:28:51;;;;;;;2.70;2.50;;;26.60;99.90;;;;;;6179110;23;20220;-78
2022/07/12 11:31:18;;;;;;;4.20;2.80;;;27.00;99.90;;;;;;6181301;23;20525;-78
2022/07/12 11:33:47;;;;;;;3.50;1.97;;;27.30;99.90;;;;;;6181271;23;20164;-78
2022/07/12 11:36:14;;;;;;;2.57;2.00;;;27.20;99.90;;;;;;6180041;23;20163;-78
2022/07/12 11:38:45;;;;;;;3.23;2.37;;;27.60;28.10;;;;;;6178425;23;20517;-78
2022/07/12 11:41:13;;;;;;;2.67;2.47;;;27.70;84.70;;;;;;6178152;23;20544;-78
2022/07/12 11:43:41;;;;;;;3.77;2.47;;;27.00;99.90;;;;;;6178947;23;20183;-78
2022/07/12 11:46:09;;;;;;;2.60;2.40;;;27.30;1.00;;;;;;6180253;23;20211;-78
2022/07/12 11:48:37;;;;;;;2.60;2.10;;;27.40;66.60;;;;;;6179106;23;20195;-78
2022/07/12 11:51:06;;;;;;;2.30;2.10;;;28.20;46.90;;;;;;6153099;23;20227;-79
2022/07/12 11:53:35;;;;;;;4.15;2.30;;;28.60;1.00;;;;;;6178873;23;20538;-78
2022/07/12 11:56:04;;;;;;;4.20;2.22;;;28.30;12.70;;;;;;6204138;23;20175;-78
2022/07/12 11:58:37;;;;;;;6.15;2.50;;;28.00;49.80;;;;;;6202077;23;20172;-78
2022/07/12 12:01:06;;;;;;;3.58;2.50;;;27.80;12.70;;;;;;6205189;23;20203;-77
2022/07/12 12:03:45;;;;;;;2.47;2.28;;;27.90;62.40;;;;;;6181895;23;20164;-78
2022/07/12 12:06:13;;;;;;;2.35;2.15;;;28.30;37.50;;;;;;6208642;23;20247;-78
2022/07/12 12:08:40;;;;;;;2.53;2.33;;;28.30;26.40;;;;;;6182246;23;20262;-78
2022/07/12 12:11:07;;;;;;;2.90;2.70;;;28.00;20.30;;;;;;6182619;23;20466;-77
2022/07/12 12:13:33;;;;;;;4.00;2.63;;;27.90;27.80;;;;;;6182416;23;20168;-77
2022/07/12 12:16:02;;;;;;;4.70;2.45;;;27.80;1.00;;;;;;6157885;23;20191;-79
2022/07/12 12:18:38;;;;;;;3.08;2.80;;;27.80;99.90;;;;;;6208977;23;20474;-78
2022/07/12 12:21:12;;;;;;;3.40;3.03;;;28.30;99.90;;;;;;6183742;23;20260;-78
2022/07/12 12:23:42;;;;;;;2.72;2.42;;;28.20;20.90;;;;;;6209207;23;20167;-78
2022/07/12 12:26:15;;;;;;;2.43;2.23;;;28.40;81.10;;;;;;6207412;23;20565;-78
2022/07/12 12:28:49;;;;;;;3.60;3.30;;;28.70;15.30;;;;;;6210353;23;20157;-77
2022/07/12 12:31:18;;;;;;;3.63;2.67;;;29.10;1.00;;;;;;6209576;23;20234;-77
2022/07/12 12:33:51;;;;;;;3.07;2.63;;;29.70;1.00;;;;;;6182847;23;20164;-78
2022/07/12 12:36:22;;;;;;;1.97;1.87;;;29.60;1.00;;;;;;6207114;23;20199;-78
2022/07/12 12:38:55;;;;;;;2.23;2.00;;;29.40;1.00;;;;;;6209863;23;20172;-77
2022/07/12 12:41:24;;;;;;;2.60;2.40;;;29.10;1.00;;;;;;6180365;23;20240;-78
2022/07/12 12:44:02;;;;;;;2.47;2.30;;;29.60;1.00;;;;;;6181280;23;20160;-78
2022/07/12 12:46:51;;;;;;;2.80;2.60;;;29.60;1.00;;;;;;6179677;23;20302;-77
2022/07/12 12:49:18;;;;;;;2.93;2.00;;;29.40;1.00;;;;;;6180210;23;20884;-78
2022/07/12 12:51:53;;;;;;;3.97;2.57;;;29.00;1.00;;;;;;6174840;23;20196;-77
2022/07/12 12:54:38;;;;;;;2.00;1.80;;;29.00;1.00;;;;;;6206839;23;20559;-78
2022/07/12 12:57:06;;;;;;;2.93;2.30;;;29.30;1.00;;;;;;6157098;23;20556;-79
2022/07/12 12:59:34;;;;;;;2.00;1.90;;;29.80;1.00;;;;;;6181660;23;20187;-78
2022/07/12 13:02:02;;;;;;;2.25;2.10;;;29.70;1.00;;;;;;6182382;23;20199;-78
2022/07/12 13:04:30;;;;;;;2.65;2.20;;;30.10;1.00;;;;;;6183301;23;20171;-78
2022/07/12 13:06:57;;;;;;;2.00;1.90;;;30.30;1.00;;;;;;6182529;23;20163;-79
2022/07/12 13:09:26;;;;;;;2.53;2.33;;;29.90;1.00;;;;;;6183991;23;20168;-79
2022/07/12 13:11:53;;;;;;;2.60;2.40;;;29.70;1.00;;;;;;6209112;23;20557;-78